Time;durP1;ratioP1;P1;durP2;ratioP2;P2;SDS_P1;SDS_P2;PMS_P1;PMS_P2;Temp;Humidity;BMP_temperature;BMP_pressure;BME280_temperature;BME280_humidity;BME280_pressure;Samples;Min_cycle;Max_cycle;Signal;HPM_P1;HPM_P2
2022/01/02 00:02:04;;;;;;;;;0.00;0.00;11.80;99.90;;;;;;5014105;28;11597;-53
2022/01/02 00:04:37;;;;;;;;;0.00;0.00;11.80;99.90;;;;;;5011807;28;12212;-52
2022/01/02 00:07:09;;;;;;;;;0.00;0.00;11.80;99.90;;;;;;5014573;28;11450;-54
2022/01/02 00:09:47;;;;;;;;;0.00;0.00;11.70;99.90;;;;;;5010260;28;11473;-54
2022/01/02 00:12:22;;;;;;;;;0.00;0.00;11.70;99.90;;;;;;5014689;28;12035;-52
2022/01/02 00:14:56;;;;;;;;;0.00;0.00;11.80;99.90;;;;;;5014112;28;11503;-54
2022/01/02 00:17:29;;;;;;;;;0.00;0.00;11.80;99.90;;;;;;4999319;28;11413;-53
2022/01/02 00:20:09;;;;;;;;;0.00;0.00;11.80;99.90;;;;;;4999436;28;11424;-53
2022/01/02 00:22:48;;;;;;;;;0.00;0.00;11.80;99.90;;;;;;5010062;28;11479;-55
2022/01/02 00:25:28;;;;;;;;;0.00;0.00;11.80;99.90;;;;;;5008557;28;12438;-54
2022/01/02 00:28:02;;;;;;;;;0.00;0.00;11.70;99.90;;;;;;5009918;28;11488;-51
2022/01/02 00:30:43;;;;;;;;;0.00;0.00;11.70;99.90;;;;;;4997229;28;11507;-50
2022/01/02 00:33:13;;;;;;;;;0.00;0.00;11.70;99.90;;;;;;5013475;28;11588;-57
2022/01/02 00:35:45;;;;;;;;;0.00;0.00;11.70;99.90;;;;;;5014295;28;11493;-53
2022/01/02 00:38:20;;;;;;;;;0.00;0.00;11.70;99.90;;;;;;4976615;28;11423;-52
2022/01/02 00:40:55;;;;;;;;;0.00;0.00;11.70;99.90;;;;;;5010361;28;11481;-54
2022/01/02 00:43:59;;;;;;;;;0.00;0.00;11.70;99.90;;;;;;4992476;28;12089;-52
2022/01/02 00:46:34;;;;;;;;;0.00;0.00;11.70;99.90;;;;;;4997075;28;11446;-52
2022/01/02 00:49:08;;;;;;;;;0.00;0.00;11.70;99.90;;;;;;5015353;28;11488;-53
2022/01/02 00:51:51;;;;;;;;;0.00;0.00;11.60;99.90;;;;;;5002880;28;11516;-54
2022/01/02 00:54:27;;;;;;;;;1.00;0.00;11.60;99.90;;;;;;4992254;28;11500;-54
2022/01/02 00:57:05;;;;;;;;;0.00;0.00;11.60;99.90;;;;;;5016510;28;11548;-56
2022/01/02 00:59:47;;;;;;;;;0.00;0.00;11.60;99.90;;;;;;5013967;28;12175;-53
2022/01/02 01:02:26;;;;;;;;;0.00;0.00;11.60;99.90;;;;;;5017495;28;11961;-57
2022/01/02 01:05:01;;;;;;;;;0.00;0.00;11.60;99.90;;;;;;5000259;28;11488;-49
2022/01/02 01:07:34;;;;;;;;;0.00;0.00;11.60;99.90;;;;;;5010992;28;11674;-51
2022/01/02 01:10:11;;;;;;;;;0.00;0.00;11.50;99.90;;;;;;5016515;28;11517;-52
2022/01/02 01:12:45;;;;;;;;;0.00;0.00;11.50;99.90;;;;;;4991126;28;11523;-49
2022/01/02 01:15:17;;;;;;;;;0.00;0.00;11.50;99.90;;;;;;5018855;28;11508;-53
2022/01/02 01:17:49;;;;;;;;;1.00;0.00;11.40;99.90;;;;;;4980802;28;14082;-54
2022/01/02 01:20:21;;;;;;;;;0.00;0.00;11.40;99.90;;;;;;5002721;28;11530;-49
2022/01/02 01:22:54;;;;;;;;;0.00;0.00;11.40;99.90;;;;;;5014555;28;11679;-54
2022/01/02 01:25:27;;;;;;;;;0.00;0.00;11.40;99.90;;;;;;4995829;28;11513;-52
2022/01/02 01:27:58;;;;;;;;;0.25;0.25;11.30;99.90;;;;;;5012730;28;11690;-51
2022/01/02 01:30:30;;;;;;;;;0.25;0.25;11.30;99.90;;;;;;4998537;28;11561;-53
2022/01/02 01:33:03;;;;;;;;;1.75;1.75;11.20;99.90;;;;;;5015398;28;12204;-52
2022/01/02 01:35:34;;;;;;;;;3.00;2.00;11.30;99.90;;;;;;5002885;28;11500;-51
2022/01/02 01:38:06;;;;;;;;;0.75;0.75;11.20;99.90;;;;;;5001239;28;12087;-50
2022/01/02 01:40:44;;;;;;;;;1.75;1.75;11.20;99.90;;;;;;5016218;28;12879;-50
2022/01/02 01:43:16;;;;;;;;;2.25;2.25;11.20;99.90;;;;;;4997134;28;11533;-52
2022/01/02 01:45:50;;;;;;;;;3.25;3.25;11.10;99.90;;;;;;5016464;28;11555;-54
2022/01/02 01:48:22;;;;;;;;;3.50;3.50;11.10;99.90;;;;;;5015892;28;11494;-51
2022/01/02 01:50:53;;;;;;;;;5.00;5.00;11.10;99.90;;;;;;5014745;28;11485;-53
2022/01/02 01:53:25;;;;;;;;;6.25;6.25;11.00;99.90;;;;;;5016335;28;11467;-52
2022/01/02 01:55:58;;;;;;;;;5.25;5.25;11.00;99.90;;;;;;5012999;28;11696;-51
2022/01/02 01:58:32;;;;;;;;;5.00;5.00;11.00;99.90;;;;;;5000006;28;11518;-53
2022/01/02 02:01:07;;;;;;;;;6.25;6.25;10.90;99.90;;;;;;4993246;28;11581;-52
2022/01/02 02:03:49;;;;;;;;;5.75;5.75;10.90;99.90;;;;;;4999794;28;11507;-51
2022/01/02 02:06:20;;;;;;;;;6.00;4.75;10.90;99.90;;;;;;5012306;28;11603;-52
2022/01/02 02:08:59;;;;;;;;;5.75;5.75;10.80;99.90;;;;;;5017438;28;11506;-52
2022/01/02 02:11:32;;;;;;;;;6.00;6.00;10.80;99.90;;;;;;5016659;28;12196;-50
2022/01/02 02:14:06;;;;;;;;;6.50;6.50;10.80;99.90;;;;;;4997752;28;11541;-52
2022/01/02 02:16:39;;;;;;;;;4.50;4.50;10.70;99.90;;;;;;4998977;28;11513;-52
2022/01/02 02:19:15;;;;;;;;;3.25;3.25;10.60;99.90;;;;;;4999088;28;11500;-53
2022/01/02 02:21:45;;;;;;;;;3.00;3.00;10.60;99.90;;;;;;4997920;28;11521;-49
2022/01/02 02:24:17;;;;;;;;;4.00;4.00;10.60;99.90;;;;;;4999759;28;11703;-51
2022/01/02 02:26:48;;;;;;;;;5.00;5.00;10.60;99.90;;;;;;5015479;28;12199;-53
2022/01/02 02:29:21;;;;;;;;;6.25;6.25;10.60;99.90;;;;;;5001404;28;11549;-51
2022/01/02 02:31:56;;;;;;;;;9.50;9.50;10.50;99.90;;;;;;5016836;28;11534;-51
2022/01/02 02:34:29;;;;;;;;;7.25;7.25;10.50;99.90;;;;;;5002258;28;12257;-51
2022/01/02 02:37:00;;;;;;;;;4.25;4.25;10.50;99.90;;;;;;5013684;28;11516;-52
2022/01/02 02:39:38;;;;;;;;;3.50;3.50;10.50;99.90;;;;;;4991746;28;12271;-52
2022/01/02 02:42:29;;;;;;;;;6.00;6.00;10.40;99.90;;;;;;5012513;28;12648;-54
2022/01/02 02:54:35;;;;;;;;;6.00;6.00;10.30;99.90;;;;;;5001625;28;11693;-53
2022/01/02 02:57:12;;;;;;;;;6.00;6.00;10.20;99.90;;;;;;4999087;28;12628;-53
2022/01/02 02:59:44;;;;;;;;;10.00;9.00;10.20;99.90;;;;;;5001150;28;11558;-52
2022/01/02 03:02:16;;;;;;;;;10.50;10.50;10.20;99.90;;;;;;4997358;28;11498;-52
2022/01/02 03:04:48;;;;;;;;;11.25;11.25;10.20;99.90;;;;;;5017138;28;11540;-53
2022/01/02 03:07:20;;;;;;;;;9.25;9.25;10.10;99.90;;;;;;4999263;28;11537;-51
2022/01/02 03:09:57;;;;;;;;;11.25;11.25;10.00;99.90;;;;;;4995281;28;11977;-51
2022/01/02 03:12:30;;;;;;;;;12.25;12.25;10.10;99.90;;;;;;4991554;28;11621;-50
2022/01/02 03:15:02;;;;;;;;;10.00;10.00;10.10;99.90;;;;;;4998486;28;11593;-48
2022/01/02 03:17:34;;;;;;;;;9.50;9.50;10.00;99.90;;;;;;5008071;28;11716;-52
2022/01/02 03:20:06;;;;;;;;;9.75;9.75;10.00;99.90;;;;;;4987397;28;12318;-51
2022/01/02 03:22:37;;;;;;;;;8.50;6.50;9.90;99.90;;;;;;4990575;28;11743;-49
2022/01/02 03:25:13;;;;;;;;;8.00;8.00;9.80;99.90;;;;;;5009706;28;11559;-53
2022/01/02 03:27:45;;;;;;;;;8.00;8.00;9.80;99.90;;;;;;4991819;28;12024;-51
2022/01/02 03:30:18;;;;;;;;;6.00;6.00;9.70;99.90;;;;;;4995184;28;12324;-51
2022/01/02 03:32:50;;;;;;;;;8.50;8.00;9.80;99.90;;;;;;4995692;28;11574;-51
2022/01/02 03:35:22;;;;;;;;;7.50;7.50;9.80;99.90;;;;;;4993376;28;12313;-52
2022/01/02 03:37:54;;;;;;;;;7.50;7.50;9.70;99.90;;;;;;4992971;28;11721;-52
2022/01/02 03:40:25;;;;;;;;;6.00;6.00;9.70;99.90;;;;;;5006225;28;11551;-52
2022/01/02 03:42:57;;;;;;;;;8.50;8.50;9.60;99.90;;;;;;4992503;28;12905;-51
2022/01/02 03:45:30;;;;;;;;;9.50;9.50;9.60;99.90;;;;;;4994493;28;11584;-52
2022/01/02 03:48:02;;;;;;;;;8.75;8.75;9.70;99.90;;;;;;4971575;28;11611;-53
2022/01/02 03:50:34;;;;;;;;;8.75;8.75;9.60;99.90;;;;;;5001739;28;11563;-53
2022/01/02 03:53:08;;;;;;;;;11.00;9.50;9.50;99.90;;;;;;4991636;28;11622;-49
2022/01/02 03:55:40;;;;;;;;;9.00;6.75;9.50;99.90;;;;;;4985216;28;11548;-52
2022/01/02 03:58:11;;;;;;;;;9.25;9.25;9.50;99.90;;;;;;4990162;28;12852;-52
2022/01/02 04:00:45;;;;;;;;;8.75;8.50;9.50;99.90;;;;;;4987008;28;11580;-54
2022/01/02 04:03:16;;;;;;;;;6.25;6.25;9.40;99.90;;;;;;4995913;28;11725;-51
2022/01/02 04:05:48;;;;;;;;;7.50;7.50;9.50;99.90;;;;;;4989770;28;11529;-54
2022/01/02 04:08:22;;;;;;;;;9.00;9.00;9.40;99.90;;;;;;4993660;28;11562;-48
2022/01/02 04:10:53;;;;;;;;;8.00;8.00;9.40;99.90;;;;;;5004840;28;11587;-52
2022/01/02 04:13:26;;;;;;;;;10.00;10.00;9.40;99.90;;;;;;4994289;28;11563;-51
2022/01/02 04:15:58;;;;;;;;;6.50;6.50;9.40;99.90;;;;;;5005306;28;12298;-50
2022/01/02 04:18:30;;;;;;;;;7.75;7.75;9.40;99.90;;;;;;4995479;28;11720;-47
2022/01/02 04:21:01;;;;;;;;;11.50;11.50;9.30;99.90;;;;;;4996197;28;11533;-53
2022/01/02 04:23:33;;;;;;;;;12.75;12.75;9.30;99.90;;;;;;5001259;28;11563;-51
2022/01/02 04:26:03;;;;;;;;;13.50;12.25;9.20;99.90;;;;;;4995602;28;11602;-53
2022/01/02 04:28:34;;;;;;;;;8.75;8.75;9.20;99.90;;;;;;4979331;28;11572;-48
2022/01/02 04:31:10;;;;;;;;;12.00;11.00;9.30;99.90;;;;;;4996277;28;11595;-50
2022/01/02 04:33:44;;;;;;;;;10.00;10.00;9.20;99.90;;;;;;5011615;28;11599;-52
2022/01/02 04:36:15;;;;;;;;;18.00;17.00;9.20;99.90;;;;;;4999202;28;11578;-52
2022/01/02 04:38:47;;;;;;;;;23.67;21.67;9.10;99.90;;;;;;4981485;28;11585;-54
2022/01/02 04:41:19;;;;;;;;;28.00;25.67;9.10;99.90;;;;;;4995820;28;8852;-52
2022/01/02 04:43:51;;;;;;;;;27.67;27.67;9.10;99.90;;;;;;4998705;28;8901;-49
2022/01/02 04:46:22;;;;;;;;;17.33;16.67;9.00;99.90;;;;;;4999823;28;8866;-51
2022/01/02 04:48:54;;;;;;;;;18.33;18.33;9.00;99.90;;;;;;4996081;28;8848;-52
2022/01/02 04:51:25;;;;;;;;;20.33;20.00;8.90;99.90;;;;;;4997005;28;11615;-53
2022/01/02 04:53:56;;;;;;;;;19.50;19.50;8.90;99.90;;;;;;4998205;28;8851;-49
2022/01/02 04:56:28;;;;;;;;;17.33;17.33;8.90;99.90;;;;;;4997103;28;11621;-53
2022/01/02 04:58:59;;;;;;;;;18.00;18.00;8.90;99.90;;;;;;5010725;28;11607;-52
2022/01/02 05:01:30;;;;;;;;;16.25;15.00;8.90;99.90;;;;;;4997293;28;11720;-52
2022/01/02 05:04:03;;;;;;;;;10.50;10.50;8.90;99.90;;;;;;4999484;28;11564;-51
2022/01/02 05:06:34;;;;;;;;;7.75;5.00;8.90;99.90;;;;;;4997352;28;11566;-51
2022/01/02 05:09:06;;;;;;;;;7.00;7.00;8.90;99.90;;;;;;4999627;28;11548;-54
2022/01/02 05:11:37;;;;;;;;;5.00;5.00;8.80;99.90;;;;;;4997902;28;12259;-50
2022/01/02 05:14:09;;;;;;;;;4.00;4.00;8.80;99.90;;;;;;5015627;28;11522;-50
2022/01/02 05:16:40;;;;;;;;;4.00;4.00;8.80;99.90;;;;;;5001853;28;11525;-52
2022/01/02 05:19:15;;;;;;;;;3.25;3.25;8.80;99.90;;;;;;5003068;28;11518;-49
2022/01/02 05:21:47;;;;;;;;;4.00;4.00;8.80;99.90;;;;;;5000850;28;11593;-52
2022/01/02 05:24:18;;;;;;;;;4.25;4.25;8.80;99.90;;;;;;5003102;28;11558;-51
2022/01/02 05:26:51;;;;;;;;;3.00;3.00;8.70;99.90;;;;;;5017448;28;11528;-52
2022/01/02 05:29:23;;;;;;;;;4.00;2.25;8.70;99.90;;;;;;4995833;28;11546;-51
2022/01/02 05:31:56;;;;;;;;;4.50;4.50;8.80;99.90;;;;;;5014182;28;11584;-49
2022/01/02 05:34:27;;;;;;;;;4.00;4.00;8.70;99.90;;;;;;5017884;28;11485;-53
2022/01/02 05:36:59;;;;;;;;;4.00;2.50;8.70;99.90;;;;;;4995896;28;11509;-52
2022/01/02 05:39:29;;;;;;;;;3.50;3.50;8.60;99.90;;;;;;5018938;28;11638;-53
2022/01/02 05:42:01;;;;;;;;;5.00;5.00;8.60;99.90;;;;;;4996229;28;11520;-50
2022/01/02 05:44:32;;;;;;;;;5.00;5.00;8.60;99.90;;;;;;5000727;28;11484;-51
2022/01/02 05:47:03;;;;;;;;;4.00;4.00;8.60;99.90;;;;;;4995360;28;11682;-49
2022/01/02 05:49:40;;;;;;;;;3.25;3.25;8.60;99.90;;;;;;5000268;28;11545;-51
2022/01/02 05:52:12;;;;;;;;;4.25;4.25;8.60;99.90;;;;;;4998193;28;11485;-50
2022/01/02 05:54:45;;;;;;;;;4.00;4.00;8.60;99.90;;;;;;5018723;28;11693;-51
2022/01/02 05:57:16;;;;;;;;;6.00;6.00;8.50;99.90;;;;;;4978534;28;12313;-52
2022/01/02 05:59:48;;;;;;;;;4.00;4.00;8.50;99.90;;;;;;4999780;28;11489;-51
2022/01/02 06:02:21;;;;;;;;;4.00;4.00;8.50;99.90;;;;;;5015731;28;11515;-51
2022/01/02 06:04:53;;;;;;;;;7.00;7.00;8.50;99.90;;;;;;4982499;28;11539;-53
2022/01/02 06:07:24;;;;;;;;;6.50;6.50;8.50;99.90;;;;;;5015252;28;12872;-50
2022/01/02 06:09:54;;;;;;;;;5.50;5.50;8.40;99.90;;;;;;5009441;28;11516;-52
2022/01/02 06:12:25;;;;;;;;;5.00;5.00;8.40;99.90;;;;;;4998978;28;11728;-50
2022/01/02 06:14:57;;;;;;;;;6.00;6.00;8.40;99.90;;;;;;5004509;28;12093;-48
2022/01/02 06:17:28;;;;;;;;;4.00;4.00;8.40;99.90;;;;;;4983399;28;11507;-52
2022/01/02 06:19:59;;;;;;;;;3.75;3.75;8.40;99.90;;;;;;5014358;28;11509;-52
2022/01/02 06:22:31;;;;;;;;;2.75;2.75;8.40;99.90;;;;;;4999948;28;11509;-52
2022/01/02 06:25:01;;;;;;;;;3.00;3.00;8.40;99.90;;;;;;5011328;28;11483;-51
2022/01/02 06:27:32;;;;;;;;;3.00;3.00;8.40;99.90;;;;;;5013233;28;11532;-50
2022/01/02 06:30:05;;;;;;;;;1.75;1.75;8.30;99.90;;;;;;5012206;28;11527;-49
2022/01/02 06:32:40;;;;;;;;;2.00;2.00;8.30;99.90;;;;;;5015480;28;11501;-50
2022/01/02 06:35:14;;;;;;;;;2.00;2.00;8.30;99.90;;;;;;4996590;28;12238;-51
2022/01/02 06:37:44;;;;;;;;;1.25;1.25;8.30;99.90;;;;;;4998254;28;11524;-52
2022/01/02 06:40:16;;;;;;;;;2.25;2.25;8.30;99.90;;;;;;4996922;28;11556;-51
2022/01/02 06:42:47;;;;;;;;;2.00;2.00;8.30;99.90;;;;;;5016332;28;11618;-52
2022/01/02 06:45:19;;;;;;;;;0.25;0.25;8.20;99.90;;;;;;4997918;28;11494;-52
2022/01/02 06:47:52;;;;;;;;;0.00;0.00;8.20;99.90;;;;;;5013707;28;11480;-54
2022/01/02 06:50:23;;;;;;;;;2.00;2.00;8.10;99.90;;;;;;4981672;28;11489;-49
2022/01/02 06:52:55;;;;;;;;;3.50;3.50;8.00;99.90;;;;;;4998728;28;11513;-48
2022/01/02 06:55:25;;;;;;;;;2.00;2.00;8.00;99.90;;;;;;4980182;28;11734;-49
2022/01/02 06:57:56;;;;;;;;;2.25;2.25;8.00;99.90;;;;;;4984232;28;11505;-48
2022/01/02 07:00:30;;;;;;;;;3.00;3.00;8.00;99.90;;;;;;5015471;28;11493;-49
2022/01/02 07:03:03;;;;;;;;;2.25;2.25;7.90;99.90;;;;;;5013369;28;11501;-50
2022/01/02 07:05:35;;;;;;;;;3.00;3.00;7.90;99.90;;;;;;4998962;28;11657;-50
2022/01/02 07:08:07;;;;;;;;;3.00;3.00;7.90;99.90;;;;;;4999213;28;11471;-50
2022/01/02 07:10:40;;;;;;;;;2.75;2.75;7.90;99.90;;;;;;5016071;28;11627;-52
2022/01/02 07:13:14;;;;;;;;;4.50;4.50;7.90;99.90;;;;;;5015076;28;12388;-50
2022/01/02 07:15:49;;;;;;;;;4.00;4.00;7.90;99.90;;;;;;4997508;28;11497;-51
2022/01/02 07:18:19;;;;;;;;;3.75;3.75;7.90;99.90;;;;;;5015380;28;11492;-51
2022/01/02 07:20:51;;;;;;;;;7.33;7.33;7.80;99.90;;;;;;5013345;28;11489;-51
2022/01/02 07:23:21;;;;;;;;;6.00;6.00;7.80;99.90;;;;;;5016159;28;11479;-52
2022/01/02 07:25:53;;;;;;;;;7.67;6.00;7.80;99.90;;;;;;5015747;28;12326;-53
2022/01/02 07:28:23;;;;;;;;;5.33;5.33;7.70;99.90;;;;;;4998143;28;11524;-53
2022/01/02 07:30:58;;;;;;;;;3.50;3.50;7.70;99.90;;;;;;4998768;28;11522;-51
2022/01/02 07:33:29;;;;;;;;;0.00;0.00;7.70;99.90;;;;;;4994278;28;11531;-52
2022/01/02 07:36:00;;;;;;;;;7.00;7.00;7.70;99.90;;;;;;5013708;28;11483;-52
2022/01/02 07:38:33;;;;;;;;;4.00;4.00;7.70;99.90;;;;;;5014461;28;11485;-51
2022/01/02 07:41:03;;;;;;;;;7.67;7.67;7.60;99.90;;;;;;5008805;28;11566;-51
2022/01/02 07:43:35;;;;;;;;;9.25;9.25;7.60;99.90;;;;;;4996876;28;8867;-49
2022/01/02 07:46:06;;;;;;;;;3.25;3.25;7.70;99.90;;;;;;5015228;28;11506;-53
2022/01/02 07:48:39;;;;;;;;;3.25;3.25;7.70;99.90;;;;;;5011115;28;11526;-49
2022/01/02 07:51:10;;;;;;;;;7.00;7.00;7.70;99.90;;;;;;5013477;28;12296;-52
2022/01/02 07:53:40;;;;;;;;;6.50;6.00;7.60;99.90;;;;;;5014735;28;11498;-51
2022/01/02 07:56:15;;;;;;;;;6.00;6.00;7.60;99.90;;;;;;5010063;28;12716;-51
2022/01/02 07:58:46;;;;;;;;;2.00;2.00;7.60;99.90;;;;;;5011761;28;8858;-52
2022/01/02 08:01:17;;;;;;;;;4.00;4.00;7.60;99.90;;;;;;4998545;28;11498;-52
2022/01/02 08:03:48;;;;;;;;;3.67;3.67;7.60;99.90;;;;;;5011082;28;11486;-50
2022/01/02 08:06:20;;;;;;;;;3.00;3.00;7.50;99.90;;;;;;4996662;28;11537;-52
2022/01/02 08:08:49;;;;;;;;;3.50;3.50;7.40;99.90;;;;;;4999427;28;11772;-50
2022/01/02 08:11:24;;;;;;;;;3.00;3.00;7.40;99.90;;;;;;5008974;28;11766;-51
2022/01/02 08:14:15;;;;;;;;;4.00;3.67;7.30;99.90;;;;;;5013799;28;11489;-53
2022/01/02 08:16:46;;;;;;;;;3.33;2.00;7.30;99.90;;;;;;4978645;28;11678;-48
2022/01/02 08:19:18;;;;;;;;;3.33;3.33;7.30;99.90;;;;;;5011400;28;8850;-48
2022/01/02 08:21:50;;;;;;;;;3.33;3.33;7.30;99.90;;;;;;5010741;28;11510;-49
2022/01/02 08:24:27;;;;;;;;;6.33;3.67;7.30;99.90;;;;;;5012188;28;8854;-51
2022/01/02 08:26:57;;;;;;;;;2.00;2.00;7.30;99.90;;;;;;4994536;28;11500;-52
2022/01/02 08:29:28;;;;;;;;;3.00;3.00;7.30;99.90;;;;;;5012328;28;11568;-49
2022/01/02 08:31:58;;;;;;;;;4.00;4.00;7.30;99.90;;;;;;5013150;28;8865;-50
2022/01/02 08:34:30;;;;;;;;;2.67;2.67;7.30;99.90;;;;;;4995315;28;9015;-50
2022/01/02 08:37:01;;;;;;;;;7.00;7.00;7.20;99.90;;;;;;4992531;28;8870;-49
2022/01/02 08:39:31;;;;;;;;;11.33;9.00;7.20;99.90;;;;;;4994823;28;10144;-52
2022/01/02 08:42:02;;;;;;;;;13.33;13.33;7.20;99.90;;;;;;5011043;28;8872;-51
2022/01/02 08:44:33;;;;;;;;;22.00;19.00;7.20;99.90;;;;;;5013256;28;8849;-53
2022/01/02 08:47:03;;;;;;;;;21.67;20.33;7.20;99.90;;;;;;5010377;28;8850;-50
2022/01/02 08:49:34;;;;;;;;;13.33;13.33;7.10;99.90;;;;;;5011290;28;8997;-51
2022/01/02 08:52:04;;;;;;;;;6.33;6.33;7.10;99.90;;;;;;5012329;28;8858;-50
2022/01/02 08:54:38;;;;;;;;;8.00;8.00;7.10;99.90;;;;;;5010511;28;9641;-48
2022/01/02 08:57:09;;;;;;;;;11.00;11.00;7.10;99.90;;;;;;4992940;28;8838;-50
2022/01/02 08:59:42;;;;;;;;;12.33;11.00;7.10;99.90;;;;;;5012763;28;8854;-50
2022/01/02 09:02:15;;;;;;;;;5.33;5.33;7.10;99.90;;;;;;4994959;28;8861;-53
2022/01/02 09:04:48;;;;;;;;;3.33;3.33;7.00;99.90;;;;;;5010417;28;8889;-52
2022/01/02 09:07:19;;;;;;;;;2.33;2.33;7.00;99.90;;;;;;5013126;28;8857;-51
2022/01/02 09:09:50;;;;;;;;;2.67;2.67;7.00;99.90;;;;;;5014880;28;8882;-50
2022/01/02 09:12:22;;;;;;;;;3.00;2.33;7.00;99.90;;;;;;5014542;28;8874;-55
2022/01/02 09:14:53;;;;;;;;;3.00;3.00;6.90;99.90;;;;;;5015762;28;8856;-52
2022/01/02 09:17:25;;;;;;;;;1.33;1.33;6.90;99.90;;;;;;5002832;28;8857;-50
2022/01/02 09:19:57;;;;;;;;;2.00;2.00;6.90;99.90;;;;;;5016563;28;8893;-51
2022/01/02 09:22:29;;;;;;;;;1.00;1.00;6.90;99.90;;;;;;5017014;28;8846;-50
2022/01/02 09:24:59;;;;;;;;;3.00;3.00;6.80;99.90;;;;;;4996989;28;8850;-52
2022/01/02 09:27:30;;;;;;;;;2.00;2.00;6.80;99.90;;;;;;5015611;28;9640;-50
2022/01/02 09:30:02;;;;;;;;;1.00;1.00;6.80;99.90;;;;;;4997629;28;8858;-52
2022/01/02 09:32:35;;;;;;;;;0.00;0.00;6.90;99.90;;;;;;5002242;28;11480;-53
2022/01/02 09:35:11;;;;;;;;;3.00;2.00;6.80;99.90;;;;;;5013309;28;11492;-51
2022/01/02 09:37:40;;;;;;;;;0.67;0.67;6.80;99.90;;;;;;5002232;28;8857;-57
2022/01/02 09:40:16;;;;;;;;;2.00;0.00;6.80;99.90;;;;;;5015721;28;8900;-52
2022/01/02 09:42:45;;;;;;;;;0.67;0.67;6.70;99.90;;;;;;5014126;28;8834;-49
2022/01/02 09:45:16;;;;;;;;;1.00;1.00;6.70;99.90;;;;;;5011339;28;8865;-55
2022/01/02 09:47:46;;;;;;;;;0.67;0.67;6.70;99.90;;;;;;5015915;28;8846;-52
2022/01/02 09:50:18;;;;;;;;;0.67;0.67;6.70;99.90;;;;;;5016110;28;11624;-51
2022/01/02 09:52:50;;;;;;;;;0.00;0.00;6.60;99.90;;;;;;5016445;28;8833;-51
2022/01/02 09:55:21;;;;;;;;;1.00;1.00;6.60;99.90;;;;;;4999577;28;9497;-48
2022/01/02 09:57:54;;;;;;;;;3.33;3.33;6.60;99.90;;;;;;5002839;28;8889;-50
2022/01/02 10:00:25;;;;;;;;;8.00;7.00;6.60;99.90;;;;;;5016978;28;9593;-49
2022/01/02 10:02:56;;;;;;;;;6.00;6.00;6.60;99.90;;;;;;5014080;28;8873;-51
2022/01/02 10:05:31;;;;;;;;;6.00;6.00;6.60;99.90;;;;;;4997213;28;8838;-50
2022/01/02 10:08:20;;;;;;;;;6.00;6.00;6.60;99.90;;;;;;5016545;28;8921;-45
2022/01/02 10:11:01;;;;;;;;;6.67;6.67;6.60;99.90;;;;;;5012793;28;8852;-49
2022/01/02 10:13:50;;;;;;;;;6.33;6.00;6.60;99.90;;;;;;5011375;28;8826;-47
2022/01/02 10:16:37;;;;;;;;;2.67;2.67;6.50;99.90;;;;;;5010873;28;8858;-49
2022/01/02 10:19:35;;;;;;;;;3.33;3.33;6.50;99.90;;;;;;5014386;28;8885;-46
2022/01/02 10:22:08;;;;;;;;;5.00;5.00;6.40;99.90;;;;;;5016849;28;8993;-48
2022/01/02 10:24:47;;;;;;;;;5.67;5.67;6.30;99.90;;;;;;5013018;28;8945;-51
2022/01/02 10:27:22;;;;;;;;;6.00;6.00;6.30;99.90;;;;;;5014163;28;9063;-47
2022/01/02 10:29:54;;;;;;;;;5.67;5.67;6.30;99.90;;;;;;5015429;28;8802;-51
2022/01/02 10:32:43;;;;;;;;;6.00;6.00;6.20;99.90;;;;;;5016968;28;8850;-50
2022/01/02 10:35:18;;;;;;;;;5.67;5.67;6.20;99.90;;;;;;5011019;28;8892;-49
2022/01/02 10:37:53;;;;;;;;;3.33;3.33;6.20;99.90;;;;;;5017338;28;8838;-49
2022/01/02 10:40:27;;;;;;;;;6.00;6.00;6.10;99.90;;;;;;5013547;28;8969;-52
2022/01/02 10:42:59;;;;;;;;;3.33;3.33;6.10;99.90;;;;;;5014207;28;8903;-51
2022/01/02 10:45:41;;;;;;;;;3.33;3.33;6.10;99.90;;;;;;5015817;28;8906;-47
2022/01/02 10:48:16;;;;;;;;;5.00;5.00;6.10;99.90;;;;;;5009880;28;8902;-50
2022/01/02 10:51:06;;;;;;;;;2.33;2.33;6.10;99.90;;;;;;5014369;28;8874;-49
2022/01/02 10:53:53;;;;;;;;;1.67;1.67;6.10;99.90;;;;;;5012354;28;8880;-51
2022/01/02 10:56:27;;;;;;;;;0.33;0.33;6.20;99.90;;;;;;5009486;28;8858;-49
2022/01/02 10:59:01;;;;;;;;;0.00;0.00;6.20;99.90;;;;;;5015706;28;8873;-52
2022/01/02 11:01:32;;;;;;;;;2.00;2.00;6.10;99.90;;;;;;5013679;28;8862;-50
2022/01/02 11:04:03;;;;;;;;;1.00;1.00;6.00;99.90;;;;;;5016359;28;8866;-50
2022/01/02 11:06:36;;;;;;;;;2.00;2.00;6.10;99.90;;;;;;5012530;28;9964;-51
2022/01/02 11:09:06;;;;;;;;;3.00;1.67;6.10;99.90;;;;;;5013709;28;8842;-51
2022/01/02 11:11:36;;;;;;;;;2.00;2.00;6.00;99.90;;;;;;5010457;28;8910;-50
2022/01/02 11:14:07;;;;;;;;;2.00;2.00;5.90;99.90;;;;;;5012706;28;8834;-49
2022/01/02 11:16:38;;;;;;;;;1.00;1.00;5.90;99.90;;;;;;5013818;28;8856;-49
2022/01/02 11:19:16;;;;;;;;;1.00;1.00;5.80;99.90;;;;;;5009319;28;8880;-50
2022/01/02 11:21:46;;;;;;;;;2.33;2.33;5.80;99.90;;;;;;4999409;28;9008;-48
2022/01/02 11:24:27;;;;;;;;;4.33;4.33;5.90;99.90;;;;;;5010269;28;9620;-48
2022/01/02 11:27:05;;;;;;;;;2.00;2.00;5.90;99.90;;;;;;5012549;28;9618;-51
2022/01/02 11:29:37;;;;;;;;;2.00;2.00;5.90;99.90;;;;;;5013327;28;8850;-49
2022/01/02 11:32:35;;;;;;;;;1.00;1.00;5.90;99.90;;;;;;4996561;28;8894;-50
2022/01/02 11:35:25;;;;;;;;;1.33;1.33;5.80;99.90;;;;;;4990343;28;8900;-49
2022/01/02 11:38:01;;;;;;;;;2.00;2.00;5.80;99.90;;;;;;5010606;28;8842;-49
2022/01/02 11:40:56;;;;;;;;;1.33;1.00;5.80;99.90;;;;;;5015691;28;8878;-47
2022/01/02 11:43:49;;;;;;;;;2.00;2.00;5.80;99.90;;;;;;5010368;28;9012;-48
2022/01/02 11:46:30;;;;;;;;;1.33;1.33;5.80;99.90;;;;;;5016414;28;8874;-46
2022/01/02 11:49:14;;;;;;;;;8.00;6.00;5.80;99.90;;;;;;5012295;28;8827;-50
2022/01/02 11:52:00;;;;;;;;;10.00;7.67;5.80;99.90;;;;;;5012962;28;8862;-49
2022/01/02 11:54:41;;;;;;;;;9.33;9.33;5.80;99.90;;;;;;5011739;28;8858;-52
2022/01/02 11:57:15;;;;;;;;;13.67;10.67;5.70;99.90;;;;;;4993836;28;9279;-51
2022/01/02 11:59:48;;;;;;;;;8.00;8.00;5.60;99.90;;;;;;5010850;28;8866;-55
2022/01/02 12:02:26;;;;;;;;;9.33;9.33;5.60;99.90;;;;;;5015259;28;8840;-50
2022/01/02 12:07:37;;;;;;;;;5.67;5.67;5.50;99.90;;;;;;4995442;28;8838;-49
2022/01/02 12:10:37;;;;;;;;;3.67;3.00;5.60;99.90;;;;;;4994770;28;8908;-48
2022/01/02 12:13:13;;;;;;;;;5.67;5.67;5.60;99.90;;;;;;5008425;28;8853;-52
2022/01/02 12:15:43;;;;;;;;;3.00;3.00;5.50;99.90;;;;;;5011950;28;8866;-53
2022/01/02 12:18:31;;;;;;;;;3.00;3.00;5.50;99.90;;;;;;5014100;28;9001;-54
2022/01/02 12:21:06;;;;;;;;;2.00;2.00;5.50;99.90;;;;;;4996374;28;8916;-50
2022/01/02 12:23:43;;;;;;;;;2.00;2.00;5.50;99.90;;;;;;5016936;28;8984;-51
2022/01/02 12:26:23;;;;;;;;;0.00;0.00;5.50;99.90;;;;;;5009462;28;8843;-50
2022/01/02 12:29:02;;;;;;;;;1.00;1.00;5.50;99.90;;;;;;5011459;28;8909;-50
2022/01/02 12:31:43;;;;;;;;;2.00;2.00;5.50;99.90;;;;;;5017778;28;8842;-50
2022/01/02 12:34:17;;;;;;;;;1.00;1.00;5.50;99.90;;;;;;5008293;28;9000;-49
2022/01/02 12:36:49;;;;;;;;;1.00;1.00;5.40;99.90;;;;;;5011748;28;8897;-50
2022/01/02 12:39:34;;;;;;;;;1.33;1.33;5.40;99.90;;;;;;5012487;28;8912;-49
2022/01/02 12:42:13;;;;;;;;;2.33;1.33;5.40;99.90;;;;;;5011904;28;8845;-50
2022/01/02 12:44:45;;;;;;;;;1.00;1.00;5.40;99.90;;;;;;5014728;28;8842;-49
2022/01/02 12:47:28;;;;;;;;;4.33;2.00;5.30;99.90;;;;;;5016759;28;8880;-50
2022/01/02 12:49:59;;;;;;;;;2.00;2.00;5.30;99.90;;;;;;5001770;28;9000;-47
2022/01/02 12:52:29;;;;;;;;;3.00;3.00;5.30;99.90;;;;;;5013383;28;9542;-50
2022/01/02 12:55:00;;;;;;;;;2.00;2.00;5.30;99.90;;;;;;5016835;28;8869;-49
2022/01/02 12:57:31;;;;;;;;;3.67;3.67;5.30;99.90;;;;;;5012425;28;8854;-47
2022/01/02 13:00:04;;;;;;;;;5.00;2.00;5.30;99.90;;;;;;5017023;28;8888;-50
2022/01/02 13:02:34;;;;;;;;;5.00;5.00;5.30;99.90;;;;;;5016626;28;8878;-49
2022/01/02 13:05:06;;;;;;;;;3.00;3.00;5.30;99.90;;;;;;5016890;28;8866;-50
2022/01/02 13:07:38;;;;;;;;;3.00;3.00;5.30;99.90;;;;;;5011914;28;8861;-49
2022/01/02 13:10:15;;;;;;;;;3.67;3.67;5.30;99.90;;;;;;5019691;28;8877;-51
2022/01/02 13:12:47;;;;;;;;;2.67;2.67;5.30;99.90;;;;;;5013590;28;8856;-47
2022/01/02 13:15:18;;;;;;;;;1.67;1.67;5.30;99.90;;;;;;5020027;28;8822;-49
2022/01/02 13:17:57;;;;;;;;;0.00;0.00;5.30;99.90;;;;;;5013293;28;10448;-51
2022/01/02 13:20:39;;;;;;;;;1.00;1.00;5.20;99.90;;;;;;5016080;28;8827;-51
2022/01/02 13:23:21;;;;;;;;;3.00;1.00;5.20;99.90;;;;;;5019780;28;8948;-52
2022/01/02 13:25:51;;;;;;;;;1.00;1.00;5.20;99.90;;;;;;5013461;28;9594;-51
2022/01/02 13:28:29;;;;;;;;;2.00;0.00;5.20;99.90;;;;;;5016417;28;8888;-50
2022/01/02 13:30:59;;;;;;;;;1.00;1.00;5.20;99.90;;;;;;5014908;28;8846;-50
2022/01/02 13:33:39;;;;;;;;;1.00;1.00;5.10;99.90;;;;;;5014745;28;8846;-48
2022/01/02 13:36:14;;;;;;;;;1.00;1.00;5.00;99.90;;;;;;4994952;28;8860;-48
2022/01/02 13:39:04;;;;;;;;;2.00;2.00;5.10;99.90;;;;;;4998994;28;8877;-48
2022/01/02 13:41:37;;;;;;;;;1.00;1.00;5.10;99.90;;;;;;5013843;28;8866;-51
2022/01/02 13:44:17;;;;;;;;;5.33;2.00;5.10;99.90;;;;;;5015494;28;8881;-50
2022/01/02 13:46:53;;;;;;;;;1.00;1.00;5.10;99.90;;;;;;5014408;28;8826;-50